KEGE/EGE METAR and TAF weather

Enter ICAO airport designator
Station Type Date Time Source
KEGE METAR 2021/02/25 01:56 UTC NOAA

KEGE 250156Z VRB04KT 10SM SCT100 03/M11 A3002 RMK AO2 SLP210 T00281111 PNO $


Station Type Date Time Source
KEGE Decoded METAR 2021/02/25 01:56 UTC NOAA

Eagle County Regional, CO, United States (KEGE) 39-39N 106-55W
Feb 24, 2021 - 08:56 PM EST / 2021.02.25 0156 UTC
Wind: Variable at 5 MPH (4 KT):0
Visibility: 10 mile(s):0
Sky conditions: partly cloudy
Temperature: 37.0 F (2.8 C)
Dew Point: 12.0 F (-11.1 C)
Relative Humidity: 35%
Pressure (altimeter): 30.02 in. Hg (1016 hPa)
ob: KEGE 250156Z VRB04KT 10SM SCT100 03/M11 A3002 RMK AO2 SLP210 T00281111 PNO
cycle: 2

Station Type Date Time Source
KEGE TAF 2021/02/24 18:46 UTC NOAA

TAF KEGE 241740Z 2418/2518 VRB04KT P6SM SKC
FM242200 23010G15KT P6SM SCT050
FM250500 00000KT P6SM BKN030
FM251200 VRB04KT P6SM BKN016

Example: see airport list